Nordic Orion — 3FDS9 — position and weather

sailwx.info

Track history (hours):
 
Tides and Currents Weather Stations Pressure Air Temp Water Temp Dewpoint Dewpoint Depression Visibility Wind Speed Wind Dir Waves Ship Positions

Nordic Orion

Last reported at 2017-Nov-20 00:30 UTC. Time now 2017-Nov-24 16:22 UTC.
Position N 56°12' E 016°55'.

Length 225 m; draft 7.5 m.

Type: Ship. MMSI: 373437000.

Date/timePositionNaut miles runAvg speedWind from/ knotsBaromVisibWave heightAir tempDewpointWater temp
2017-Nov-20 00:30N 56°12' E 016°55'611.6
2017-Nov-20 00:00N 56°06' E 016°52'511.0
2017-Nov-19 23:30N 56°02' E 016°46'611.5
2017-Nov-19 23:00N 55°59' E 016°37'611.3
2017-Nov-19 22:30N 55°57' E 016°28'611.4
2017-Nov-19 22:00N 55°54' E 016°19'611.5
2017-Nov-19 21:30N 55°51' E 016°10'611.4
2017-Nov-19 21:00N 55°49' E 016°01'611.5
2017-Nov-19 20:30N 55°46' E 015°52'611.4
2017-Nov-19 20:00N 55°43' E 015°44'611.3
2017-Nov-19 19:30N 55°40' E 015°35'611.6
2017-Nov-19 19:00N 55°38' E 015°25'611.5
2017-Nov-19 18:30N 55°35' E 015°16'611.6
2017-Nov-19 18:00N 55°33' E 015°07'611.8
2017-Nov-19 17:30N 55°30' E 014°58'612.1
2017-Nov-19 17:00N 55°27' E 014°49'612.2
2017-Nov-19 16:30N 55°23' E 014°40'612.5
2017-Nov-19 16:00N 55°19' E 014°32'713.2
2017-Nov-19 15:30N 55°14' E 014°24'611.4
2017-Nov-19 15:00N 55°10' E 014°16'612.0
2017-Nov-19 14:30N 55°10' E 014°06'1512.4
2017-Nov-19 13:20N 55°09' E 013°41'412.5
2017-Nov-19 13:00N 55°09' E 013°33'612.6
2017-Nov-19 12:30N 55°09' E 013°22'612.0
2017-Nov-19 12:00N 55°10' E 013°12'612.7
2017-Nov-19 11:30N 55°12' E 013°02'713.1
2017-Nov-19 11:00N 55°15' E 012°51'613.0
2017-Nov-19 10:30N 55°17' E 012°40'510.5
2017-Nov-19 10:00N 55°22' E 012°38'713.4
2017-Nov-19 09:30N 55°29' E 012°40'510.0
2017-Nov-19 09:00N 55°34' E 012°42'4 8.9
2017-Nov-19 08:30N 55°38' E 012°42'612.9
2017-Nov-19 08:00N 55°45' E 012°41'5 9.1
2017-Nov-19 07:30N 55°49' E 012°42'713.4
2017-Nov-19 07:01N 55°55' E 012°38'612.5
2017-Nov-19 06:30N 56°02' E 012°38'611.2
2017-Nov-19 06:01N 56°06' E 012°33'5 9.6
2017-Nov-19 05:31N 56°09' E 012°26'4 8.0
2017-Nov-19 05:00N 56°11' E 012°20'4 7.2
2017-Nov-19 04:31N 56°14' E 012°15'4 7.3
2017-Nov-19 04:00N 56°15' E 012°09'4 7.8
2017-Nov-19 03:31N 56°18' E 012°03'35 7.5
2017-Nov-18 22:56N 56°51' E 011°48'4 7.5
2017-Nov-18 22:26N 56°55' E 011°46'3 7.2
2017-Nov-18 22:00N 56°58' E 011°44'4 7.5
2017-Nov-18 21:28N 57°01' E 011°41'4 7.5
2017-Nov-18 20:58N 57°05' E 011°39'4 7.6
2017-Nov-18 20:30N 57°08' E 011°37'4 7.9
2017-Nov-18 20:00N 57°12' E 011°34'4 7.6
2017-Nov-18 19:30N 57°15' E 011°32'4 7.6
2017-Nov-18 19:00N 57°19' E 011°30'4 7.5
2017-Nov-18 18:30N 57°23' E 011°27'4 7.6
2017-Nov-18 18:00N 57°26' E 011°25'4 6.8
2017-Nov-18 17:29N 57°29' E 011°21'4 7.9
2017-Nov-18 17:00N 57°32' E 011°16'4 8.1
2017-Nov-18 16:30N 57°34' E 011°10'4 8.0
2017-Nov-18 16:00N 57°37' E 011°05'4 7.9
2017-Nov-18 15:30N 57°39' E 010°59'4 8.0
2017-Nov-18 14:59N 57°42' E 010°53'4 8.1
2017-Nov-18 14:30N 57°45' E 010°47'4 7.8
2017-Nov-18 13:57N 57°47' E 010°41'4 9.2
2017-Nov-18 13:29N 57°47' E 010°33'4 9.2
2017-Nov-18 13:01N 57°46' E 010°25'5 9.0
2017-Nov-18 12:30N 57°46' E 010°17'4 8.6
2017-Nov-18 12:00N 57°45' E 010°09'6 8.6
2017-Nov-18 11:19N 57°43' E 009°58'17812.0
2017-Nov-17 20:32N 55°22' E 006°41'112.9
2017-Nov-17 20:26N 55°21' E 006°41'512.9
2017-Nov-17 20:00N 55°16' E 006°40'713.1
2017-Nov-17 19:30N 55°09' E 006°38'713.5
2017-Nov-17 19:00N 55°02' E 006°37'713.5
2017-Nov-17 18:30N 54°56' E 006°36'8311.4
2017-Nov-17 11:15N 53°33' E 006°42'314.1
2017-Nov-17 11:00N 53°31' E 006°47'4 8.5
2017-Nov-17 10:30N 53°27' E 006°50'1 1.3
2017-Nov-17 09:59N 53°27' E 006°51'0 0.0
2017-Nov-17 09:26N 53°27' E 006°51'0 0.0
2017-Nov-17 08:59N 53°27' E 006°51'0 0.0
2017-Nov-17 08:29N 53°27' E 006°51'0 0.0
2017-Nov-17 07:59N 53°27' E 006°51'0 0.0
2017-Nov-17 07:29N 53°27' E 006°51'0 0.0
2017-Nov-17 06:59N 53°27' E 006°51'0 0.0
2017-Nov-17 06:29N 53°27' E 006°51'0 0.0
2017-Nov-17 05:59N 53°27' E 006°51'0 0.0
2017-Nov-17 05:26N 53°27' E 006°51'0 0.0
2017-Nov-17 04:59N 53°27' E 006°51'0 0.0
2017-Nov-17 04:29N 53°27' E 006°51'0 0.0
2017-Nov-17 03:56N 53°27' E 006°51'0 0.0
2017-Nov-17 03:26N 53°27' E 006°51'0 0.0
2017-Nov-17 02:59N 53°27' E 006°51'0 0.0
2017-Nov-17 02:29N 53°27' E 006°51'0 0.0
2017-Nov-17 01:59N 53°27' E 006°51'0 0.0
2017-Nov-17 01:29N 53°27' E 006°51'0 0.0
2017-Nov-17 00:59N 53°27' E 006°51'0 0.0
2017-Nov-17 00:26N 53°27' E 006°51'0 0.0
2017-Nov-16 23:59N 53°27' E 006°51'0 0.0
2017-Nov-16 23:29N 53°27' E 006°51'0 0.0
2017-Nov-16 22:59N 53°27' E 006°51'0 0.0
2017-Nov-16 22:29N 53°27' E 006°51'0 0.0
2017-Nov-16 21:56N 53°27' E 006°51'0 0.0
2017-Nov-16 21:26N 53°27' E 006°51'0 0.0
2017-Nov-16 20:59N 53°27' E 006°51'0 0.0
2017-Nov-16 20:29N 53°27' E 006°51'0 0.0
2017-Nov-16 19:59N 53°27' E 006°51'0 0.0
2017-Nov-16 19:29N 53°27' E 006°51'0 0.0
2017-Nov-16 18:59N 53°27' E 006°51'0 0.0
2017-Nov-16 18:29N 53°27' E 006°51'0 0.0
2017-Nov-16 17:53N 53°27' E 006°51'0 0.0
2017-Nov-16 17:29N 53°27' E 006°51'0 0.0
2017-Nov-16 16:56N 53°27' E 006°51'0 0.0
2017-Nov-16 16:29N 53°27' E 006°51'0 0.0
2017-Nov-16 15:59N 53°27' E 006°51'0 0.0
2017-Nov-16 15:29N 53°27' E 006°51'0 0.0
2017-Nov-16 14:59N 53°27' E 006°51'0 0.0
2017-Nov-16 14:29N 53°27' E 006°51'0 0.0
2017-Nov-16 13:59N 53°27' E 006°51'0 0.0
2017-Nov-16 13:29N 53°27' E 006°51'0 0.0
2017-Nov-16 12:59N 53°27' E 006°51'0 0.0
2017-Nov-16 12:29N 53°27' E 006°51'0 0.0
2017-Nov-16 11:59N 53°27' E 006°51'0 0.0
2017-Nov-16 11:29N 53°27' E 006°51'0 0.0
2017-Nov-16 10:59N 53°27' E 006°51'0 0.0
2017-Nov-16 10:29N 53°27' E 006°51'0 0.0
2017-Nov-16 09:59N 53°27' E 006°51'0 0.0
2017-Nov-16 09:29N 53°27' E 006°51'0 0.0
2017-Nov-16 08:59N 53°27' E 006°51'0 0.0
2017-Nov-16 08:29N 53°27' E 006°51'0 0.0
2017-Nov-16 07:59N 53°27' E 006°51'0 0.0
2017-Nov-16 07:29N 53°27' E 006°51'0 0.0
2017-Nov-16 06:59N 53°27' E 006°51'0 0.0
2017-Nov-16 06:29N 53°27' E 006°51'0 0.0
2017-Nov-16 05:59N 53°27' E 006°51'0 0.0
2017-Nov-16 05:29N 53°27' E 006°51'0 0.0
2017-Nov-16 04:59N 53°27' E 006°51'0 0.0
2017-Nov-16 04:26N 53°27' E 006°51'0 0.0
2017-Nov-16 03:59N 53°27' E 006°51'0 0.0
2017-Nov-16 03:26N 53°27' E 006°51'0 0.0
2017-Nov-16 02:59N 53°27' E 006°51'0 0.0
2017-Nov-16 02:29N 53°27' E 006°51'0 0.0
2017-Nov-16 01:59N 53°27' E 006°51'0 0.1
2017-Nov-16 01:29N 53°27' E 006°51'0 0.1
2017-Nov-16 00:56N 53°27' E 006°51'0 0.0
2017-Nov-16 00:29N 53°27' E 006°51'0 0.0
2017-Nov-15 23:59N 53°27' E 006°51'0 0.0
2017-Nov-15 23:29N 53°27' E 006°51'0 0.0
2017-Nov-15 22:59N 53°27' E 006°51'0 0.0
2017-Nov-15 22:23N 53°27' E 006°51'0 0.0
2017-Nov-15 21:59N 53°27' E 006°51'0 0.0
2017-Nov-15 21:29N 53°27' E 006°51'0 0.0
2017-Nov-15 20:59N 53°27' E 006°51'0 0.0
2017-Nov-15 20:29N 53°27' E 006°51'0 0.0
2017-Nov-15 19:53N 53°27' E 006°51'0 0.1
2017-Nov-15 19:26N 53°27' E 006°51'0 0.0
2017-Nov-15 18:59N 53°27' E 006°51'0 0.0
2017-Nov-15 18:29N 53°27' E 006°51'0 0.0
2017-Nov-15 17:59N 53°27' E 006°51'0 0.0
2017-Nov-15 17:29N 53°27' E 006°51'0 0.0
2017-Nov-15 16:50N 53°27' E 006°51'0 0.0
2017-Nov-15 16:29N 53°27' E 006°51'0 0.0
2017-Nov-15 15:56N 53°27' E 006°51'0 0.0
2017-Nov-15 15:29N 53°27' E 006°51'0 0.0
2017-Nov-15 14:59N 53°27' E 006°51'0 0.0
2017-Nov-15 14:29N 53°27' E 006°51'0 0.0
2017-Nov-15 13:50N 53°27' E 006°51'0 0.0
2017-Nov-15 13:29N 53°27' E 006°51'0 0.0
2017-Nov-15 12:59N 53°27' E 006°51'0 0.0
2017-Nov-15 12:29N 53°27' E 006°51'0 0.0
2017-Nov-15 11:59N 53°27' E 006°51'0 0.0
2017-Nov-15 11:29N 53°27' E 006°51'0 0.0
2017-Nov-15 10:59N 53°27' E 006°51'0 0.0
2017-Nov-15 10:29N 53°27' E 006°51'0 0.0
2017-Nov-15 09:56N 53°27' E 006°51'0 0.0
2017-Nov-15 09:29N 53°27' E 006°51'0 0.0
2017-Nov-15 09:00N 53°27' E 006°51'0 0.1
2017-Nov-15 08:30N 53°27' E 006°51'1 1.8
2017-Nov-15 08:00N 53°27' E 006°50'3 6.6
2017-Nov-15 07:30N 53°30' E 006°48'79 5.1
2017-Nov-14 15:57N 54°49' E 006°35'511.1
2017-Nov-14 15:30N 54°54' E 006°36'611.0
2017-Nov-14 15:00N 54°60' E 006°37'510.9
2017-Nov-14 14:30N 55°05' E 006°37'510.6
2017-Nov-14 14:00N 55°11' E 006°38'510.6
2017-Nov-14 13:30N 55°16' E 006°39'510.5
2017-Nov-14 13:00N 55°21' E 006°40'510.4
2017-Nov-14 12:30N 55°26' E 006°41'510.3
2017-Nov-14 12:00N 55°31' E 006°42'510.3
2017-Nov-14 11:30N 55°37' E 006°43'146 4.3
2017-Nov-13 01:41N 55°24' E 011°01'310.9
2017-Nov-13 01:25N 55°21' E 011°02'411.0
2017-Nov-13 01:00N 55°17' E 011°04'510.2
2017-Nov-13 00:30N 55°12' E 011°05'510.7
2017-Nov-13 00:00N 55°08' E 010°59'511.0
2017-Nov-12 23:30N 55°02' E 010°60'510.5
2017-Nov-12 23:00N 54°57' E 010°56'5 9.7
2017-Nov-12 22:30N 54°54' E 010°51'5 9.5
2017-Nov-12 22:00N 54°49' E 010°50'510.5
2017-Nov-12 21:30N 54°44' E 010°47'5 9.5
2017-Nov-12 21:00N 54°39' E 010°50'611.2
2017-Nov-12 20:30N 54°37' E 010°58'510.8
2017-Nov-12 20:00N 54°36' E 011°07'510.6
2017-Nov-12 19:30N 54°34' E 011°16'510.9
2017-Nov-12 19:00N 54°32' E 011°25'510.9
2017-Nov-12 18:30N 54°30' E 011°33'611.0
2017-Nov-12 18:00N 54°27' E 011°42'611.0
2017-Nov-12 17:30N 54°26' E 011°51'611.1
2017-Nov-12 17:00N 54°26' E 012°00'510.7
2017-Nov-12 16:30N 54°26' E 012°10'510.9
2017-Nov-12 16:00N 54°31' E 012°13'510.4
2017-Nov-12 15:30N 54°36' E 012°16'4 7.7
2017-Nov-12 15:00N 54°38' E 012°21'5410.7
2017-Nov-12 09:56N 55°00' E 013°47'710.8
2017-Nov-12 09:19N 55°03' E 013°58'310.2
2017-Nov-12 09:00N 55°04' E 014°03'510.7
2017-Nov-12 08:30N 55°08' E 014°10'510.7
2017-Nov-12 08:00N 55°12' E 014°15'510.6
2017-Nov-12 07:30N 55°16' E 014°21'611.1
2017-Nov-12 07:00N 55°21' E 014°27'510.9
2017-Nov-12 06:30N 55°25' E 014°33'510.4
2017-Nov-12 06:00N 55°28' E 014°40'510.4
2017-Nov-12 05:30N 55°30' E 014°49'510.3
2017-Nov-12 05:00N 55°33' E 014°57'510.9
2017-Nov-12 04:30N 55°36' E 015°05'611.6
2017-Nov-12 04:00N 55°39' E 015°14'510.4
2017-Nov-12 03:30N 55°41' E 015°22'510.2
2017-Nov-12 03:00N 55°44' E 015°30'510.5
2017-Nov-12 02:30N 55°46' E 015°38'510.4
2017-Nov-12 02:00N 55°49' E 015°46'510.3
2017-Nov-12 01:30N 55°51' E 015°54'510.4
2017-Nov-12 01:00N 55°54' E 016°02'510.5
2017-Nov-12 00:30N 55°56' E 016°10'510.6
2017-Nov-12 00:00N 55°59' E 016°18'510.5
2017-Nov-11 23:30N 56°02' E 016°27'510.7
2017-Nov-11 23:00N 56°04' E 016°35'510.8
2017-Nov-11 22:30N 56°08' E 016°43'510.9
2017-Nov-11 22:00N 56°11' E 016°50'510.8
2017-Nov-11 21:30N 56°14' E 016°58'510.7
2017-Nov-11 21:00N 56°17' E 017°06'275 9.9
2017-Nov-10 17:23N 59°35' E 023°05'810.5
2017-Nov-10 16:38N 59°38' E 023°20'110.7
2017-Nov-10 16:30N 59°38' E 023°22'510.6
2017-Nov-10 16:00N 59°39' E 023°32'510.6
2017-Nov-10 15:30N 59°41' E 023°42'510.7
2017-Nov-10 15:00N 59°43' E 023°52'510.6
2017-Nov-10 14:30N 59°44' E 024°03'510.5
2017-Nov-10 14:00N 59°46' E 024°12'510.7
2017-Nov-10 13:30N 59°47' E 024°22'510.7
2017-Nov-10 13:00N 59°48' E 024°33'510.7
2017-Nov-10 12:30N 59°50' E 024°43'510.6
2017-Nov-10 12:00N 59°50' E 024°54'510.6
2017-Nov-10 11:30N 59°52' E 025°04'510.7
2017-Nov-10 11:00N 59°53' E 025°14'510.5
2017-Nov-10 10:30N 59°53' E 025°25'610.7
2017-Nov-10 09:58N 59°54' E 025°36'1910.7
2017-Nov-10 08:14N 59°59' E 026°12'210.8
2017-Nov-10 08:00N 59°59' E 026°17'510.8
2017-Nov-10 07:30N 60°01' E 026°27'510.5
2017-Nov-10 07:00N 60°01' E 026°37'510.7
2017-Nov-10 06:30N 60°01' E 026°48'510.9
2017-Nov-10 06:00N 59°60' E 026°59'5 9.7
2017-Nov-10 05:30N 60°01' E 027°08'510.1
2017-Nov-10 05:00N 60°03' E 027°17'5 9.9
2017-Nov-10 04:30N 60°06' E 027°25'510.6
2017-Nov-10 04:00N 60°09' E 027°34'611.0
2017-Nov-10 03:30N 60°11' E 027°44'5 9.7
2017-Nov-10 03:00N 60°11' E 027°54'510.9
2017-Nov-10 02:30N 60°10' E 028°04'511.0
2017-Nov-10 02:00N 60°08' E 028°15'611.2
2017-Nov-10 01:30N 60°05' E 028°24'611.2
2017-Nov-10 01:00N 60°03' E 028°34'5 9.6
2017-Nov-10 00:30N 59°58' E 028°35'  
Track history (hours):
 
Tides and Currents Weather Stations Pressure Air Temp Water Temp Dewpoint Dewpoint Depression Visibility Wind Speed Wind Dir Waves Ship Positions

Nordic Orion

Last reported at 2017-Nov-20 00:30 UTC. Time now 2017-Nov-24 16:22 UTC.
Position N 56°12' E 016°55'.

Length 225 m; draft 7.5 m.

Type: Ship. MMSI: 373437000.

Date/timePositionNaut miles runAvg speedWind from/ knotsBaromVisibWave heightAir tempDewpointWater temp
2017-Nov-20 00:30N 56°12' E 016°55'611.6
2017-Nov-20 00:00N 56°06' E 016°52'511.0
2017-Nov-19 23:30N 56°02' E 016°46'611.5
2017-Nov-19 23:00N 55°59' E 016°37'611.3
2017-Nov-19 22:30N 55°57' E 016°28'611.4
2017-Nov-19 22:00N 55°54' E 016°19'611.5
2017-Nov-19 21:30N 55°51' E 016°10'611.4
2017-Nov-19 21:00N 55°49' E 016°01'611.5
2017-Nov-19 20:30N 55°46' E 015°52'611.4
2017-Nov-19 20:00N 55°43' E 015°44'611.3
2017-Nov-19 19:30N 55°40' E 015°35'611.6
2017-Nov-19 19:00N 55°38' E 015°25'611.5
2017-Nov-19 18:30N 55°35' E 015°16'611.6
2017-Nov-19 18:00N 55°33' E 015°07'611.8
2017-Nov-19 17:30N 55°30' E 014°58'612.1
2017-Nov-19 17:00N 55°27' E 014°49'612.2
2017-Nov-19 16:30N 55°23' E 014°40'612.5
2017-Nov-19 16:00N 55°19' E 014°32'713.2
2017-Nov-19 15:30N 55°14' E 014°24'611.4
2017-Nov-19 15:00N 55°10' E 014°16'612.0
2017-Nov-19 14:30N 55°10' E 014°06'1512.4
2017-Nov-19 13:20N 55°09' E 013°41'412.5
2017-Nov-19 13:00N 55°09' E 013°33'612.6
2017-Nov-19 12:30N 55°09' E 013°22'612.0
2017-Nov-19 12:00N 55°10' E 013°12'612.7
2017-Nov-19 11:30N 55°12' E 013°02'713.1
2017-Nov-19 11:00N 55°15' E 012°51'613.0
2017-Nov-19 10:30N 55°17' E 012°40'510.5
2017-Nov-19 10:00N 55°22' E 012°38'713.4
2017-Nov-19 09:30N 55°29' E 012°40'510.0
2017-Nov-19 09:00N 55°34' E 012°42'4 8.9
2017-Nov-19 08:30N 55°38' E 012°42'612.9
2017-Nov-19 08:00N 55°45' E 012°41'5 9.1
2017-Nov-19 07:30N 55°49' E 012°42'713.4
2017-Nov-19 07:01N 55°55' E 012°38'612.5
2017-Nov-19 06:30N 56°02' E 012°38'611.2
2017-Nov-19 06:01N 56°06' E 012°33'5 9.6
2017-Nov-19 05:31N 56°09' E 012°26'4 8.0
2017-Nov-19 05:00N 56°11' E 012°20'4 7.2
2017-Nov-19 04:31N 56°14' E 012°15'4 7.3
2017-Nov-19 04:00N 56°15' E 012°09'4 7.8
2017-Nov-19 03:31N 56°18' E 012°03'35 7.5
2017-Nov-18 22:56N 56°51' E 011°48'4 7.5
2017-Nov-18 22:26N 56°55' E 011°46'3 7.2
2017-Nov-18 22:00N 56°58' E 011°44'4 7.5
2017-Nov-18 21:28N 57°01' E 011°41'4 7.5
2017-Nov-18 20:58N 57°05' E 011°39'4 7.6
2017-Nov-18 20:30N 57°08' E 011°37'4 7.9
2017-Nov-18 20:00N 57°12' E 011°34'4 7.6
2017-Nov-18 19:30N 57°15' E 011°32'4 7.6
2017-Nov-18 19:00N 57°19' E 011°30'4 7.5
2017-Nov-18 18:30N 57°23' E 011°27'4 7.6
2017-Nov-18 18:00N 57°26' E 011°25'4 6.8
2017-Nov-18 17:29N 57°29' E 011°21'4 7.9
2017-Nov-18 17:00N 57°32' E 011°16'4 8.1
2017-Nov-18 16:30N 57°34' E 011°10'4 8.0
2017-Nov-18 16:00N 57°37' E 011°05'4 7.9
2017-Nov-18 15:30N 57°39' E 010°59'4 8.0
2017-Nov-18 14:59N 57°42' E 010°53'4 8.1
2017-Nov-18 14:30N 57°45' E 010°47'4 7.8
2017-Nov-18 13:57N 57°47' E 010°41'4 9.2
2017-Nov-18 13:29N 57°47' E 010°33'4 9.2
2017-Nov-18 13:01N 57°46' E 010°25'5 9.0
2017-Nov-18 12:30N 57°46' E 010°17'4 8.6
2017-Nov-18 12:00N 57°45' E 010°09'6 8.6
2017-Nov-18 11:19N 57°43' E 009°58'17812.0
2017-Nov-17 20:32N 55°22' E 006°41'112.9
2017-Nov-17 20:26N 55°21' E 006°41'512.9
2017-Nov-17 20:00N 55°16' E 006°40'713.1
2017-Nov-17 19:30N 55°09' E 006°38'713.5
2017-Nov-17 19:00N 55°02' E 006°37'713.5
2017-Nov-17 18:30N 54°56' E 006°36'8311.4
2017-Nov-17 11:15N 53°33' E 006°42'314.1
2017-Nov-17 11:00N 53°31' E 006°47'4 8.5
2017-Nov-17 10:30N 53°27' E 006°50'1 1.3
2017-Nov-17 09:59N 53°27' E 006°51'0 0.0
2017-Nov-17 09:26N 53°27' E 006°51'0 0.0
2017-Nov-17 08:59N 53°27' E 006°51'0 0.0
2017-Nov-17 08:29N 53°27' E 006°51'0 0.0
2017-Nov-17 07:59N 53°27' E 006°51'0 0.0
2017-Nov-17 07:29N 53°27' E 006°51'0 0.0
2017-Nov-17 06:59N 53°27' E 006°51'0 0.0
2017-Nov-17 06:29N 53°27' E 006°51'0 0.0
2017-Nov-17 05:59N 53°27' E 006°51'0 0.0
2017-Nov-17 05:26N 53°27' E 006°51'0 0.0
2017-Nov-17 04:59N 53°27' E 006°51'0 0.0
2017-Nov-17 04:29N 53°27' E 006°51'0 0.0
2017-Nov-17 03:56N 53°27' E 006°51'0 0.0
2017-Nov-17 03:26N 53°27' E 006°51'0 0.0
2017-Nov-17 02:59N 53°27' E 006°51'0 0.0
2017-Nov-17 02:29N 53°27' E 006°51'0 0.0
2017-Nov-17 01:59N 53°27' E 006°51'0 0.0
2017-Nov-17 01:29N 53°27' E 006°51'0 0.0
2017-Nov-17 00:59N 53°27' E 006°51'0 0.0
2017-Nov-17 00:26N 53°27' E 006°51'0 0.0
2017-Nov-16 23:59N 53°27' E 006°51'0 0.0
2017-Nov-16 23:29N 53°27' E 006°51'0 0.0
2017-Nov-16 22:59N 53°27' E 006°51'0 0.0
2017-Nov-16 22:29N 53°27' E 006°51'0 0.0
2017-Nov-16 21:56N 53°27' E 006°51'0 0.0
2017-Nov-16 21:26N 53°27' E 006°51'0 0.0
2017-Nov-16 20:59N 53°27' E 006°51'0 0.0
2017-Nov-16 20:29N 53°27' E 006°51'0 0.0
2017-Nov-16 19:59N 53°27' E 006°51'0 0.0
2017-Nov-16 19:29N 53°27' E 006°51'0 0.0
2017-Nov-16 18:59N 53°27' E 006°51'0 0.0
2017-Nov-16 18:29N 53°27' E 006°51'0 0.0
2017-Nov-16 17:53N 53°27' E 006°51'0 0.0
2017-Nov-16 17:29N 53°27' E 006°51'0 0.0
2017-Nov-16 16:56N 53°27' E 006°51'0 0.0
2017-Nov-16 16:29N 53°27' E 006°51'0 0.0
2017-Nov-16 15:59N 53°27' E 006°51'0 0.0
2017-Nov-16 15:29N 53°27' E 006°51'0 0.0
2017-Nov-16 14:59N 53°27' E 006°51'0 0.0
2017-Nov-16 14:29N 53°27' E 006°51'0 0.0
2017-Nov-16 13:59N 53°27' E 006°51'0 0.0
2017-Nov-16 13:29N 53°27' E 006°51'0 0.0
2017-Nov-16 12:59N 53°27' E 006°51'0 0.0
2017-Nov-16 12:29N 53°27' E 006°51'0 0.0
2017-Nov-16 11:59N 53°27' E 006°51'0 0.0
2017-Nov-16 11:29N 53°27' E 006°51'0 0.0
2017-Nov-16 10:59N 53°27' E 006°51'0 0.0
2017-Nov-16 10:29N 53°27' E 006°51'0 0.0
2017-Nov-16 09:59N 53°27' E 006°51'0 0.0
2017-Nov-16 09:29N 53°27' E 006°51'0 0.0
2017-Nov-16 08:59N 53°27' E 006°51'0 0.0
2017-Nov-16 08:29N 53°27' E 006°51'0 0.0
2017-Nov-16 07:59N 53°27' E 006°51'0 0.0
2017-Nov-16 07:29N 53°27' E 006°51'0 0.0
2017-Nov-16 06:59N 53°27' E 006°51'0 0.0
2017-Nov-16 06:29N 53°27' E 006°51'0 0.0
2017-Nov-16 05:59N 53°27' E 006°51'0 0.0
2017-Nov-16 05:29N 53°27' E 006°51'0 0.0
2017-Nov-16 04:59N 53°27' E 006°51'0 0.0
2017-Nov-16 04:26N 53°27' E 006°51'0 0.0
2017-Nov-16 03:59N 53°27' E 006°51'0 0.0
2017-Nov-16 03:26N 53°27' E 006°51'0 0.0
2017-Nov-16 02:59N 53°27' E 006°51'0 0.0
2017-Nov-16 02:29N 53°27' E 006°51'0 0.0
2017-Nov-16 01:59N 53°27' E 006°51'0 0.1
2017-Nov-16 01:29N 53°27' E 006°51'0 0.1
2017-Nov-16 00:56N 53°27' E 006°51'0 0.0
2017-Nov-16 00:29N 53°27' E 006°51'0 0.0
2017-Nov-15 23:59N 53°27' E 006°51'0 0.0
2017-Nov-15 23:29N 53°27' E 006°51'0 0.0
2017-Nov-15 22:59N 53°27' E 006°51'0 0.0
2017-Nov-15 22:23N 53°27' E 006°51'0 0.0
2017-Nov-15 21:59N 53°27' E 006°51'0 0.0
2017-Nov-15 21:29N 53°27' E 006°51'0 0.0
2017-Nov-15 20:59N 53°27' E 006°51'0 0.0
2017-Nov-15 20:29N 53°27' E 006°51'0 0.0
2017-Nov-15 19:53N 53°27' E 006°51'0 0.1
2017-Nov-15 19:26N 53°27' E 006°51'0 0.0
2017-Nov-15 18:59N 53°27' E 006°51'0 0.0
2017-Nov-15 18:29N 53°27' E 006°51'0 0.0
2017-Nov-15 17:59N 53°27' E 006°51'0 0.0
2017-Nov-15 17:29N 53°27' E 006°51'0 0.0
2017-Nov-15 16:50N 53°27' E 006°51'0 0.0
2017-Nov-15 16:29N 53°27' E 006°51'0 0.0
2017-Nov-15 15:56N 53°27' E 006°51'0 0.0
2017-Nov-15 15:29N 53°27' E 006°51'0 0.0
2017-Nov-15 14:59N 53°27' E 006°51'0 0.0
2017-Nov-15 14:29N 53°27' E 006°51'0 0.0
2017-Nov-15 13:50N 53°27' E 006°51'0 0.0
2017-Nov-15 13:29N 53°27' E 006°51'0 0.0
2017-Nov-15 12:59N 53°27' E 006°51'0 0.0
2017-Nov-15 12:29N 53°27' E 006°51'0 0.0
2017-Nov-15 11:59N 53°27' E 006°51'0 0.0
2017-Nov-15 11:29N 53°27' E 006°51'0 0.0
2017-Nov-15 10:59N 53°27' E 006°51'0 0.0
2017-Nov-15 10:29N 53°27' E 006°51'0 0.0
2017-Nov-15 09:56N 53°27' E 006°51'0 0.0
2017-Nov-15 09:29N 53°27' E 006°51'0 0.0
2017-Nov-15 09:00N 53°27' E 006°51'0 0.1
2017-Nov-15 08:30N 53°27' E 006°51'1 1.8
2017-Nov-15 08:00N 53°27' E 006°50'3 6.6
2017-Nov-15 07:30N 53°30' E 006°48'79 5.1
2017-Nov-14 15:57N 54°49' E 006°35'511.1
2017-Nov-14 15:30N 54°54' E 006°36'611.0
2017-Nov-14 15:00N 54°60' E 006°37'510.9
2017-Nov-14 14:30N 55°05' E 006°37'510.6
2017-Nov-14 14:00N 55°11' E 006°38'510.6
2017-Nov-14 13:30N 55°16' E 006°39'510.5
2017-Nov-14 13:00N 55°21' E 006°40'510.4
2017-Nov-14 12:30N 55°26' E 006°41'510.3
2017-Nov-14 12:00N 55°31' E 006°42'510.3
2017-Nov-14 11:30N 55°37' E 006°43'146 4.3
2017-Nov-13 01:41N 55°24' E 011°01'310.9
2017-Nov-13 01:25N 55°21' E 011°02'411.0
2017-Nov-13 01:00N 55°17' E 011°04'510.2
2017-Nov-13 00:30N 55°12' E 011°05'510.7
2017-Nov-13 00:00N 55°08' E 010°59'511.0
2017-Nov-12 23:30N 55°02' E 010°60'510.5
2017-Nov-12 23:00N 54°57' E 010°56'5 9.7
2017-Nov-12 22:30N 54°54' E 010°51'5 9.5
2017-Nov-12 22:00N 54°49' E 010°50'510.5
2017-Nov-12 21:30N 54°44' E 010°47'5 9.5
2017-Nov-12 21:00N 54°39' E 010°50'611.2
2017-Nov-12 20:30N 54°37' E 010°58'510.8
2017-Nov-12 20:00N 54°36' E 011°07'510.6
2017-Nov-12 19:30N 54°34' E 011°16'510.9
2017-Nov-12 19:00N 54°32' E 011°25'510.9
2017-Nov-12 18:30N 54°30' E 011°33'611.0
2017-Nov-12 18:00N 54°27' E 011°42'611.0
2017-Nov-12 17:30N 54°26' E 011°51'611.1
2017-Nov-12 17:00N 54°26' E 012°00'510.7
2017-Nov-12 16:30N 54°26' E 012°10'510.9
2017-Nov-12 16:00N 54°31' E 012°13'510.4
2017-Nov-12 15:30N 54°36' E 012°16'4 7.7
2017-Nov-12 15:00N 54°38' E 012°21'5410.7
2017-Nov-12 09:56N 55°00' E 013°47'710.8
2017-Nov-12 09:19N 55°03' E 013°58'310.2
2017-Nov-12 09:00N 55°04' E 014°03'510.7
2017-Nov-12 08:30N 55°08' E 014°10'510.7
2017-Nov-12 08:00N 55°12' E 014°15'510.6
2017-Nov-12 07:30N 55°16' E 014°21'611.1
2017-Nov-12 07:00N 55°21' E 014°27'510.9
2017-Nov-12 06:30N 55°25' E 014°33'510.4
2017-Nov-12 06:00N 55°28' E 014°40'510.4
2017-Nov-12 05:30N 55°30' E 014°49'510.3
2017-Nov-12 05:00N 55°33' E 014°57'510.9
2017-Nov-12 04:30N 55°36' E 015°05'611.6
2017-Nov-12 04:00N 55°39' E 015°14'510.4
2017-Nov-12 03:30N 55°41' E 015°22'510.2
2017-Nov-12 03:00N 55°44' E 015°30'510.5
2017-Nov-12 02:30N 55°46' E 015°38'510.4
2017-Nov-12 02:00N 55°49' E 015°46'510.3
2017-Nov-12 01:30N 55°51' E 015°54'510.4
2017-Nov-12 01:00N 55°54' E 016°02'510.5
2017-Nov-12 00:30N 55°56' E 016°10'510.6
2017-Nov-12 00:00N 55°59' E 016°18'510.5
2017-Nov-11 23:30N 56°02' E 016°27'510.7
2017-Nov-11 23:00N 56°04' E 016°35'510.8
2017-Nov-11 22:30N 56°08' E 016°43'510.9
2017-Nov-11 22:00N 56°11' E 016°50'510.8
2017-Nov-11 21:30N 56°14' E 016°58'510.7
2017-Nov-11 21:00N 56°17' E 017°06'275 9.9
2017-Nov-10 17:23N 59°35' E 023°05'810.5
2017-Nov-10 16:38N 59°38' E 023°20'110.7
2017-Nov-10 16:30N 59°38' E 023°22'510.6
2017-Nov-10 16:00N 59°39' E 023°32'510.6
2017-Nov-10 15:30N 59°41' E 023°42'510.7
2017-Nov-10 15:00N 59°43' E 023°52'510.6
2017-Nov-10 14:30N 59°44' E 024°03'510.5
2017-Nov-10 14:00N 59°46' E 024°12'510.7
2017-Nov-10 13:30N 59°47' E 024°22'510.7
2017-Nov-10 13:00N 59°48' E 024°33'510.7
2017-Nov-10 12:30N 59°50' E 024°43'510.6
2017-Nov-10 12:00N 59°50' E 024°54'510.6
2017-Nov-10 11:30N 59°52' E 025°04'510.7
2017-Nov-10 11:00N 59°53' E 025°14'510.5
2017-Nov-10 10:30N 59°53' E 025°25'610.7
2017-Nov-10 09:58N 59°54' E 025°36'1910.7
2017-Nov-10 08:14N 59°59' E 026°12'210.8
2017-Nov-10 08:00N 59°59' E 026°17'510.8
2017-Nov-10 07:30N 60°01' E 026°27'510.5
2017-Nov-10 07:00N 60°01' E 026°37'510.7
2017-Nov-10 06:30N 60°01' E 026°48'510.9
2017-Nov-10 06:00N 59°60' E 026°59'5 9.7
2017-Nov-10 05:30N 60°01' E 027°08'510.1
2017-Nov-10 05:00N 60°03' E 027°17'5 9.9
2017-Nov-10 04:30N 60°06' E 027°25'510.6
2017-Nov-10 04:00N 60°09' E 027°34'611.0
2017-Nov-10 03:30N 60°11' E 027°44'5 9.7
2017-Nov-10 03:00N 60°11' E 027°54'510.9
2017-Nov-10 02:30N 60°10' E 028°04'511.0
2017-Nov-10 02:00N 60°08' E 028°15'611.2
2017-Nov-10 01:30N 60°05' E 028°24'611.2
2017-Nov-10 01:00N 60°03' E 028°34'5 9.6
2017-Nov-10 00:30N 59°58' E 028°35'  

Dump ship's entire track history